Weather at Ramallah Heliport

Public forecast

Using degrees Celsius for public forecast. Weather courtesy of forecast.io.

Closest aviation weather report (METAR) to Ramallah Heliport

Closest report is Ben Gurion International Airport, 17.4 nm (32.3 km) WNW.

2024/05/20 22:20 (retrieved 15 minutes ago)

LLBG 202220Z 16004KT CAVOK 24/19 Q1009 BECMG 7000 BKN010

Closest aviation forecast (TAF) to Ramallah Heliport

Closest forecast is Ben Gurion International Airport, 17.4 nm (32.3 km) WNW.

2024/05/20 18:09 (retrieved 4 hours ago)

TAF TAF LLBG 201703Z 2018/2118 VRB04KT CAVOK BECMG 2022/2024 9000 SCT015 PROB40 TEMPO 2101/2105 18006KT 7000 BKN012 BECMG 2106/2108 28012KT CAVOK BECMG 2115/2117 VRB04KT TX30/2110Z TN21/2103Z